createdAt,value
2016-07-15T00:00:34.890Z,99.48
2016-07-15T00:01:34.876Z,99.1
2016-07-15T00:02:34.858Z,99.38
2016-07-15T00:03:34.127Z,99.48
2016-07-15T00:04:34.831Z,99.48
2016-07-15T00:05:34.799Z,99.19
2016-07-15T00:06:34.800Z,99.38
2016-07-15T00:07:34.792Z,99.91
2016-07-15T00:08:34.768Z,99.81
2016-07-15T00:09:34.749Z,99.99
2016-07-15T00:10:34.740Z,99.99
2016-07-15T00:11:34.731Z,99.91
2016-07-15T00:12:34.701Z,99.81
2016-07-15T00:13:34.686Z,99.72
2016-07-15T00:14:34.671Z,99.62
2016-07-15T00:15:34.659Z,99.24
2016-07-15T00:16:34.640Z,99.48
2016-07-15T00:17:34.619Z,99.72
2016-07-15T00:18:34.611Z,99.48
2016-07-15T00:19:34.596Z,99.72
2016-07-15T00:20:34.577Z,99.33
2016-07-15T00:21:34.554Z,99.24
2016-07-15T00:22:34.552Z,99.48
2016-07-15T00:23:34.527Z,99.48
2016-07-15T00:24:34.511Z,99.52
2016-07-15T00:25:34.495Z,99.62
2016-07-15T00:26:34.491Z,99.62
2016-07-15T00:27:34.463Z,99.99
2016-07-15T00:28:34.450Z,99.99
2016-07-15T00:29:34.440Z,99.99
2016-07-15T00:30:34.439Z,99.99
2016-07-15T00:31:34.408Z,99.99
2016-07-15T00:32:34.398Z,99.99
2016-07-15T00:33:34.381Z,99.99
2016-07-15T00:34:34.402Z,99.99
2016-07-15T00:35:33.626Z,99.99
2016-07-15T00:36:34.328Z,99.81
2016-07-15T00:37:34.314Z,99.81
2016-07-15T00:38:34.295Z,99.99
2016-07-15T00:39:34.283Z,99.99
2016-07-15T00:40:34.263Z,99.99
2016-07-15T00:41:34.247Z,99.99
2016-07-15T00:42:34.228Z,99.99
2016-07-15T00:43:33.497Z,99.99
2016-07-15T00:44:34.199Z,99.99
2016-07-15T00:45:34.186Z,99.99
2016-07-15T00:46:34.169Z,99.99
2016-07-15T00:47:33.512Z,99.99
2016-07-15T00:48:34.132Z,99.99
2016-07-15T00:49:34.131Z,99.99
2016-07-15T00:50:34.105Z,99.99
2016-07-15T00:51:34.087Z,99.99
2016-07-15T00:52:34.075Z,99.99
2016-07-15T00:53:34.061Z,99.99
2016-07-15T00:54:33.332Z,99.99
2016-07-15T00:55:34.025Z,99.99
2016-07-15T00:56:34.010Z,99.99
2016-07-15T00:57:33.997Z,99.99
2016-07-15T00:58:33.983Z,99.99
2016-07-15T00:59:33.967Z,99.99
2016-07-15T01:00:33.242Z,99.99
2016-07-15T01:01:33.931Z,99.99
2016-07-15T01:02:33.909Z,99.99
2016-07-15T01:03:33.898Z,99.99
2016-07-15T01:04:33.876Z,99.99
2016-07-15T01:05:33.877Z,99.99
2016-07-15T01:06:33.851Z,99.99
2016-07-15T01:07:33.836Z,99.99
2016-07-15T01:08:33.860Z,99.99
2016-07-15T01:09:33.796Z,99.99
2016-07-15T01:10:33.786Z,99.99
2016-07-15T01:11:33.058Z,99.99
2016-07-15T01:12:33.760Z,99.99
2016-07-15T01:13:33.738Z,99.99
2016-07-15T01:14:33.001Z,99.99
2016-07-15T01:15:33.700Z,99.99
2016-07-15T01:16:33.721Z,99.99
2016-07-15T01:17:33.673Z,99.99
2016-07-15T01:18:33.671Z,99.99
2016-07-15T01:19:33.640Z,99.99
2016-07-15T01:20:33.631Z,99.99
2016-07-15T01:21:33.600Z,99.99
2016-07-15T01:22:33.600Z,99.99
2016-07-15T01:23:33.579Z,99.99
2016-07-15T01:24:33.556Z,99.99
2016-07-15T01:25:32.828Z,99.99
2016-07-15T01:26:33.528Z,99.99
2016-07-15T01:27:33.512Z,99.99
2016-07-15T01:28:33.692Z,99.99
2016-07-15T01:29:33.500Z,99.99
2016-07-15T01:30:33.481Z,99.99
2016-07-15T01:31:33.448Z,99.99
2016-07-15T01:32:32.708Z,99.99
2016-07-15T01:33:33.410Z,99.99
2016-07-15T01:34:33.394Z,99.99
2016-07-15T01:35:33.377Z,99.99
2016-07-15T01:36:33.363Z,99.99
2016-07-15T01:37:33.344Z,99.99
2016-07-15T01:38:33.336Z,99.99
2016-07-15T01:39:33.324Z,99.99
2016-07-15T01:40:32.601Z,99.99
2016-07-15T01:41:33.304Z,99.99
2016-07-15T01:42:33.264Z,99.99
2016-07-15T01:43:32.541Z,99.99
2016-07-15T01:44:33.238Z,99.99
2016-07-15T01:45:32.502Z,99.99
2016-07-15T01:46:33.202Z,99.99
2016-07-15T01:47:33.186Z,99.99
2016-07-15T01:48:33.176Z,99.99
2016-07-15T01:49:33.153Z,99.99
2016-07-15T01:50:32.429Z,99.99
2016-07-15T01:51:33.116Z,99.99
2016-07-15T01:52:33.102Z,99.99
2016-07-15T01:53:32.376Z,99.99
2016-07-15T01:54:33.074Z,99.99
2016-07-15T01:55:32.352Z,99.99
2016-07-15T01:56:33.046Z,99.99
2016-07-15T01:57:32.317Z,99.99
2016-07-15T01:58:33.033Z,99.99
2016-07-15T01:59:32.998Z,99.99
2016-07-15T02:00:32.977Z,99.99
2016-07-15T02:01:32.971Z,99.99
2016-07-15T02:02:32.946Z,99.99
2016-07-15T02:03:32.929Z,99.99
2016-07-15T02:04:32.912Z,99.99
2016-07-15T02:05:32.890Z,99.99
2016-07-15T02:06:32.891Z,99.99
2016-07-15T02:07:32.871Z,99.99
2016-07-15T02:08:32.856Z,99.99
2016-07-15T02:09:32.834Z,99.99
2016-07-15T02:10:32.828Z,99.99
2016-07-15T02:11:32.807Z,99.99
2016-07-15T02:12:32.788Z,99.99
2016-07-15T02:13:32.771Z,99.99
2016-07-15T02:14:32.782Z,99.99
2016-07-15T02:15:32.764Z,99.99
2016-07-15T02:16:32.752Z,99.99
2016-07-15T02:17:32.729Z,99.99
2016-07-15T02:18:32.711Z,99.99
2016-07-15T02:19:32.701Z,99.99
2016-07-15T02:20:32.693Z,99.99
2016-07-15T02:21:32.671Z,99.99
2016-07-15T02:22:32.662Z,99.99
2016-07-15T02:23:32.641Z,99.99
2016-07-15T02:24:32.631Z,99.99
2016-07-15T02:25:32.611Z,99.99
2016-07-15T02:26:32.592Z,99.99
2016-07-15T02:27:32.578Z,99.99
2016-07-15T02:28:31.841Z,99.99
2016-07-15T02:29:31.870Z,99.99
2016-07-15T02:30:32.539Z,99.99
2016-07-15T02:31:32.506Z,99.99
2016-07-15T02:32:32.489Z,99.99
2016-07-15T02:33:32.481Z,99.99
2016-07-15T02:34:32.463Z,99.99
2016-07-15T02:35:32.449Z,99.99
2016-07-15T02:36:32.442Z,99.99
2016-07-15T02:37:31.699Z,99.99
2016-07-15T02:38:32.401Z,99.99
2016-07-15T02:39:32.382Z,99.99
2016-07-15T02:40:32.380Z,99.99
2016-07-15T02:41:32.347Z,99.99
2016-07-15T02:42:32.332Z,99.99
2016-07-15T02:43:32.331Z,99.99
2016-07-15T02:44:32.312Z,99.99
2016-07-15T02:45:32.291Z,99.99
2016-07-15T02:46:32.268Z,99.99
2016-07-15T02:47:32.259Z,99.99
2016-07-15T02:48:32.240Z,99.99
2016-07-15T02:49:32.229Z,99.99
2016-07-15T02:50:32.201Z,99.99
2016-07-15T02:51:32.189Z,99.99
2016-07-15T02:52:32.179Z,99.99
2016-07-15T02:53:32.164Z,99.99
2016-07-15T02:54:32.147Z,99.99
2016-07-15T02:55:32.127Z,99.99
2016-07-15T02:56:32.118Z,99.99
2016-07-15T02:57:31.384Z,99.99
2016-07-15T02:58:32.090Z,99.99
2016-07-15T02:59:32.094Z,99.99
2016-07-15T03:00:32.078Z,99.99
2016-07-15T03:01:32.060Z,99.99
2016-07-15T03:02:31.321Z,99.99
2016-07-15T03:03:32.024Z,99.99
2016-07-15T03:04:32.008Z,99.99
2016-07-15T03:05:31.999Z,99.99
2016-07-15T03:06:31.978Z,99.99
2016-07-15T03:07:31.961Z,99.99
2016-07-15T03:08:31.946Z,99.99
2016-07-15T03:09:31.984Z,99.99
2016-07-15T03:10:31.929Z,99.99
2016-07-15T03:11:31.913Z,99.99
2016-07-15T03:12:31.901Z,99.99
2016-07-15T03:13:31.875Z,99.99
2016-07-15T03:14:31.857Z,99.99
2016-07-15T03:15:31.839Z,99.99
2016-07-15T03:16:31.831Z,99.99
2016-07-15T03:17:31.812Z,99.99
2016-07-15T03:18:31.794Z,99.99
2016-07-15T03:19:31.051Z,99.99
2016-07-15T03:20:31.038Z,99.99
2016-07-15T03:21:31.031Z,99.99
2016-07-15T03:22:31.739Z,99.99
2016-07-15T03:23:31.719Z,99.99
2016-07-15T03:24:31.705Z,99.99
2016-07-15T03:25:31.692Z,99.99
2016-07-15T03:26:31.660Z,99.99
2016-07-15T03:27:31.652Z,99.99
2016-07-15T03:28:31.643Z,99.99
2016-07-15T03:29:31.617Z,99.99
2016-07-15T03:30:30.877Z,99.99
2016-07-15T03:31:31.588Z,99.99
2016-07-15T03:32:31.579Z,99.99
2016-07-15T03:33:31.555Z,99.99
2016-07-15T03:34:31.543Z,99.99
2016-07-15T03:35:31.526Z,99.99
2016-07-15T03:36:31.515Z,99.99
2016-07-15T03:37:31.508Z,99.99
2016-07-15T03:38:31.437Z,99.99
2016-07-15T03:39:31.421Z,99.99
2016-07-15T03:40:30.684Z,99.99
2016-07-15T03:41:31.397Z,99.99
2016-07-15T03:42:31.372Z,99.99
2016-07-15T03:43:31.357Z,99.99
2016-07-15T03:44:31.352Z,99.99
2016-07-15T03:45:31.325Z,99.99
2016-07-15T03:46:31.318Z,99.99
2016-07-15T03:47:30.584Z,99.99
2016-07-15T03:48:31.287Z,99.99
2016-07-15T03:49:31.262Z,99.99
2016-07-15T03:50:31.251Z,99.99
2016-07-15T03:51:31.246Z,99.99
2016-07-15T03:52:31.222Z,99.99
2016-07-15T03:53:30.487Z,99.99
2016-07-15T03:54:31.199Z,99.99
2016-07-15T03:55:30.460Z,99.99
2016-07-15T03:56:31.185Z,99.99
2016-07-15T03:57:31.144Z,99.99
2016-07-15T03:58:31.123Z,99.99
2016-07-15T03:59:31.114Z,99.99
2016-07-15T04:00:30.389Z,99.99
2016-07-15T04:01:31.089Z,99.99
2016-07-15T04:02:31.069Z,99.99
2016-07-15T04:03:31.058Z,99.99
2016-07-15T04:04:31.059Z,99.99
2016-07-15T04:05:30.302Z,99.99
2016-07-15T04:06:31.004Z,99.99
2016-07-15T04:07:30.995Z,99.99
2016-07-15T04:08:30.969Z,99.99
2016-07-15T04:09:30.956Z,99.99
2016-07-15T04:10:30.945Z,99.99
2016-07-15T04:11:30.916Z,99.99
2016-07-15T04:12:30.918Z,99.99
2016-07-15T04:13:30.890Z,99.99
2016-07-15T04:14:30.886Z,99.99
2016-07-15T04:15:30.864Z,99.99
2016-07-15T04:16:30.854Z,99.99
2016-07-15T04:17:30.839Z,99.99
2016-07-15T04:18:30.815Z,99.99
2016-07-15T04:19:30.806Z,99.99
2016-07-15T04:20:30.781Z,99.99
2016-07-15T04:21:30.779Z,99.99
2016-07-15T04:22:30.754Z,99.99
2016-07-15T04:23:30.748Z,99.99
2016-07-15T04:24:30.721Z,99.99
2016-07-15T04:25:30.718Z,99.99
2016-07-15T04:26:30.697Z,99.99
2016-07-15T04:27:29.966Z,99.99
2016-07-15T04:28:30.667Z,99.99
2016-07-15T04:29:30.658Z,99.99
2016-07-15T04:30:30.626Z,99.99
2016-07-15T04:31:30.618Z,99.99
2016-07-15T04:32:30.591Z,99.99
2016-07-15T04:33:30.583Z,99.99
2016-07-15T04:34:30.567Z,99.99
2016-07-15T04:35:30.553Z,99.99
2016-07-15T04:36:30.537Z,99.99
2016-07-15T04:37:30.539Z,99.99
2016-07-15T04:38:30.502Z,99.99
2016-07-15T04:39:30.494Z,99.99
2016-07-15T04:40:30.481Z,99.99
2016-07-15T04:41:30.470Z,99.99
2016-07-15T04:42:30.448Z,99.99
2016-07-15T04:43:30.428Z,99.99
2016-07-15T04:44:30.418Z,99.99
2016-07-15T04:45:30.393Z,99.99
2016-07-15T04:46:30.388Z,99.99
2016-07-15T04:47:30.378Z,99.99
2016-07-15T04:48:30.357Z,99.99
2016-07-15T04:49:30.344Z,99.99
2016-07-15T04:50:29.608Z,99.99
2016-07-15T04:51:30.304Z,99.99
2016-07-15T04:52:30.290Z,99.99
2016-07-15T04:53:29.567Z,99.99
2016-07-15T04:54:30.257Z,99.99
2016-07-15T04:55:29.522Z,99.99
2016-07-15T04:56:30.231Z,99.99
2016-07-15T04:57:30.217Z,99.99
2016-07-15T04:58:30.196Z,99.99
2016-07-15T04:59:30.230Z,99.99
2016-07-15T05:00:30.165Z,99.99
2016-07-15T05:01:30.154Z,99.99
2016-07-15T05:02:30.133Z,99.99
2016-07-15T05:03:30.130Z,99.99
2016-07-15T05:04:30.105Z,99.99
2016-07-15T05:05:30.099Z,99.99
2016-07-15T05:06:30.074Z,99.99
2016-07-15T05:07:30.064Z,99.99
2016-07-15T05:08:30.046Z,99.99
2016-07-15T05:09:30.031Z,99.99
2016-07-15T05:10:29.295Z,99.99
2016-07-15T05:11:30.011Z,99.99
2016-07-15T05:12:29.279Z,99.99
2016-07-15T05:13:29.979Z,99.99
2016-07-15T05:14:29.964Z,99.99
2016-07-15T05:15:29.229Z,99.99
2016-07-15T05:16:29.925Z,99.99
2016-07-15T05:17:29.909Z,99.99
2016-07-15T05:18:29.901Z,99.91
2016-07-15T05:19:30.120Z,99.91
2016-07-15T05:20:29.869Z,99.91
2016-07-15T05:21:29.131Z,99.99
2016-07-15T05:22:29.850Z,99.91
2016-07-15T05:23:29.815Z,99.99
2016-07-15T05:24:29.868Z,99.99
2016-07-15T05:25:29.787Z,99.91
2016-07-15T05:26:29.838Z,99.72
2016-07-15T05:27:29.756Z,99.24
2016-07-15T05:28:29.748Z,99.34
2016-07-15T05:29:29.008Z,99.82
2016-07-15T05:30:29.718Z,99.34
2016-07-15T05:31:29.694Z,99.05
2016-07-15T05:32:29.688Z,98.67
2016-07-15T05:33:29.660Z,98.96
2016-07-15T05:34:29.660Z,98.28
2016-07-15T05:35:29.636Z,98.19
2016-07-15T05:36:29.629Z,98.57
2016-07-15T05:37:29.601Z,98.76
2016-07-15T05:38:29.610Z,98.47
2016-07-15T05:39:29.569Z,98.1
2016-07-15T05:40:29.569Z,98.67
2016-07-15T05:41:29.542Z,98
2016-07-15T05:42:29.523Z,98.67
2016-07-15T05:43:29.517Z,98.28
2016-07-15T05:44:29.503Z,98.05
2016-07-15T05:45:28.850Z,98.33
2016-07-15T05:46:29.465Z,98.14
2016-07-15T05:47:29.454Z,98.52
2016-07-15T05:48:29.443Z,98.24
2016-07-15T05:49:28.708Z,97.85
2016-07-15T05:50:29.414Z,97.76
2016-07-15T05:51:29.400Z,97.38
2016-07-15T05:52:29.376Z,97.95
2016-07-15T05:53:29.369Z,98.05
2016-07-15T05:54:29.344Z,97.85
2016-07-15T05:55:29.332Z,97.66
2016-07-15T05:56:28.612Z,97.38
2016-07-15T05:57:29.301Z,97.38
2016-07-15T05:58:29.297Z,97.47
2016-07-15T05:59:29.273Z,97.56
2016-07-15T06:00:29.267Z,97.28
2016-07-15T06:01:29.246Z,96.89
2016-07-15T06:02:29.240Z,97.09
2016-07-15T06:03:29.216Z,96.75
2016-07-15T06:04:29.211Z,96.66
2016-07-15T06:05:29.183Z,96.85
2016-07-15T06:06:29.175Z,96.27
2016-07-15T06:07:28.439Z,96.47
2016-07-15T06:08:28.423Z,96.47
2016-07-15T06:09:28.403Z,96.56
2016-07-15T06:10:29.116Z,96.27
2016-07-15T06:11:29.098Z,96.08
2016-07-15T06:12:28.376Z,95.79
2016-07-15T06:13:28.353Z,95.7
2016-07-15T06:14:29.071Z,95.6
2016-07-15T06:15:29.047Z,95.79
2016-07-15T06:16:29.022Z,95.51
2016-07-15T06:17:29.016Z,95.89
2016-07-15T06:18:28.998Z,95.6
2016-07-15T06:19:28.988Z,95.98
2016-07-15T06:20:28.977Z,96.61
2016-07-15T06:21:28.958Z,96.56
2016-07-15T06:22:28.940Z,97.04
2016-07-15T06:23:28.210Z,97.42
2016-07-15T06:24:28.911Z,97.71
2016-07-15T06:25:28.890Z,97.09
2016-07-15T06:26:28.163Z,97.33
2016-07-15T06:27:28.884Z,97.14
2016-07-15T06:28:28.141Z,97.23
2016-07-15T06:29:28.837Z,97.61
2016-07-15T06:30:28.829Z,96.66
2016-07-15T06:31:28.810Z,96.75
2016-07-15T06:32:28.806Z,95.89
2016-07-15T06:33:28.069Z,95.55
2016-07-15T06:34:28.051Z,95.55
2016-07-15T06:35:28.755Z,95.07
2016-07-15T06:36:28.737Z,94.49
2016-07-15T06:37:28.725Z,95.07
2016-07-15T06:38:28.709Z,93.82
2016-07-15T06:39:31.110Z,94.49
2016-07-15T06:40:28.697Z,93.97
2016-07-15T06:41:28.674Z,93.3
2016-07-15T06:42:28.647Z,92.91
2016-07-15T06:43:28.676Z,92.33
2016-07-15T06:44:27.947Z,92.43
2016-07-15T06:45:27.908Z,93.01
2016-07-15T06:46:28.601Z,93.2
2016-07-15T06:47:28.588Z,93.63
2016-07-15T06:48:28.583Z,94.64
2016-07-15T06:49:28.565Z,94.26
2016-07-15T06:50:28.550Z,94.4
2016-07-15T06:51:28.528Z,94.4
2016-07-15T06:52:28.525Z,93.92
2016-07-15T06:53:28.502Z,94.31
2016-07-15T06:54:27.776Z,94.12
2016-07-15T06:55:27.758Z,94.21
2016-07-15T06:56:27.748Z,93.92
2016-07-15T06:57:28.443Z,93.63
2016-07-15T06:58:28.438Z,93.49
2016-07-15T06:59:28.521Z,93.2
2016-07-15T07:00:28.406Z,93.2
2016-07-15T07:01:28.399Z,91.96
2016-07-15T07:02:28.379Z,91.38
2016-07-15T07:03:28.423Z,91.52
2016-07-15T07:04:28.346Z,91.71
2016-07-15T07:05:28.369Z,91.71
2016-07-15T07:06:27.619Z,90.7
2016-07-15T07:07:28.316Z,89.89
2016-07-15T07:08:27.598Z,89.6
2016-07-15T07:09:27.636Z,90.08
2016-07-15T07:10:28.275Z,89.65
2016-07-15T07:11:27.547Z,90.03
2016-07-15T07:12:28.244Z,89.94
2016-07-15T07:13:28.228Z,89.84
2016-07-15T07:14:28.225Z,90.32
2016-07-15T07:15:28.253Z,90.46
2016-07-15T07:16:28.198Z,89.4
2016-07-15T07:17:28.182Z,88.87
2016-07-15T07:18:28.170Z,87.96
2016-07-15T07:19:28.151Z,88.73
2016-07-15T07:20:28.151Z,89.16
2016-07-15T07:21:28.135Z,88.3
2016-07-15T07:22:28.108Z,88.44
2016-07-15T07:23:28.131Z,88.59
2016-07-15T07:24:28.097Z,87.76
2016-07-15T07:25:27.357Z,87.67
2016-07-15T07:26:28.065Z,88.39
2016-07-15T07:27:28.053Z,88.1
2016-07-15T07:28:28.036Z,87.72
2016-07-15T07:29:28.029Z,87.38
2016-07-15T07:30:28.012Z,86.32
2016-07-15T07:31:27.291Z,86.71
2016-07-15T07:32:27.981Z,87.05
2016-07-15T07:33:27.988Z,86.66
2016-07-15T07:34:27.970Z,86.76
2016-07-15T07:35:27.953Z,86.38
2016-07-15T07:36:27.960Z,85.41
2016-07-15T07:37:27.212Z,85.89
2016-07-15T07:38:27.204Z,85.61
2016-07-15T07:39:27.260Z,85.75
2016-07-15T07:40:27.884Z,86.95
2016-07-15T07:41:27.877Z,86.66
2016-07-15T07:42:27.868Z,85.99
2016-07-15T07:43:27.848Z,85.51
2016-07-15T07:44:27.128Z,85.13
2016-07-15T07:45:27.832Z,84.84
2016-07-15T07:46:27.169Z,84.07
2016-07-15T07:47:27.811Z,84.26
2016-07-15T07:48:27.077Z,83.78
2016-07-15T07:49:27.767Z,84.07
2016-07-15T07:50:27.770Z,83.97
2016-07-15T07:51:27.757Z,84.26
2016-07-15T07:52:27.738Z,83.63
2016-07-15T07:53:27.729Z,83.15
2016-07-15T07:54:26.998Z,83.06
2016-07-15T07:55:27.697Z,82.96
2016-07-15T07:56:27.681Z,81.65
2016-07-15T07:57:26.957Z,81.4
2016-07-15T07:58:26.956Z,80.73
2016-07-15T07:59:27.649Z,79.58
2016-07-15T08:00:27.630Z,80.25
2016-07-15T08:01:26.910Z,79.58
2016-07-15T08:02:27.646Z,79.58
2016-07-15T08:03:27.600Z,78.9
2016-07-15T08:04:27.616Z,78.48
2016-07-15T08:05:27.577Z,79.05
2016-07-15T08:06:26.854Z,79.5
2016-07-15T08:07:27.553Z,80.5
2016-07-15T08:08:26.829Z,80.6
2016-07-15T08:09:27.531Z,80.98
2016-07-15T08:10:27.519Z,81.52
2016-07-15T08:11:26.787Z,81.52
2016-07-15T08:12:27.501Z,80.84
2016-07-15T08:13:27.487Z,80.6
2016-07-15T08:14:27.470Z,80.21
2016-07-15T08:15:27.469Z,78.71
2016-07-15T08:16:27.443Z,78.33
2016-07-15T08:17:26.727Z,78.33
2016-07-15T08:18:26.702Z,78.46
2016-07-15T08:19:26.699Z,78.27
2016-07-15T08:20:27.393Z,78.5
2016-07-15T08:21:26.671Z,76.48
2016-07-15T08:22:27.378Z,74.4
2016-07-15T08:23:27.372Z,73.53
2016-07-15T08:24:27.360Z,74.78
2016-07-15T08:25:27.347Z,74.84
2016-07-15T08:26:26.617Z,74.68
2016-07-15T08:27:27.319Z,74.58
2016-07-15T08:28:27.304Z,73.68
2016-07-15T08:29:27.295Z,73.49
2016-07-15T08:30:27.282Z,74.65
2016-07-15T08:31:27.268Z,74.55
2016-07-15T08:32:27.252Z,74.51
2016-07-15T08:33:27.251Z,74.71
2016-07-15T08:34:27.241Z,74.8
2016-07-15T08:35:26.525Z,74.65
2016-07-15T08:36:27.219Z,74.55
2016-07-15T08:37:27.207Z,74.55
2016-07-15T08:38:26.487Z,74.36
2016-07-15T08:39:27.199Z,73.08
2016-07-15T08:40:27.176Z,71.96
2016-07-15T08:41:26.481Z,71.32
2016-07-15T08:42:27.150Z,69.39
2016-07-15T08:43:26.480Z,70.2
2016-07-15T08:44:26.422Z,70.48
2016-07-15T08:45:27.115Z,69.52
2016-07-15T08:46:27.122Z,69.2
2016-07-15T08:47:27.110Z,70.51
2016-07-15T08:48:27.090Z,71.12
2016-07-15T08:49:27.089Z,70.28
2016-07-15T08:50:27.076Z,70.09
2016-07-15T08:51:27.064Z,69.96
2016-07-15T08:52:26.336Z,70.15
2016-07-15T08:53:26.340Z,71.06
2016-07-15T08:54:26.313Z,70.86
2016-07-15T08:55:27.034Z,69.74
2016-07-15T08:56:27.000Z,70.8
2016-07-15T08:57:27.019Z,69.2
2016-07-15T08:58:27.002Z,67.85
2016-07-15T08:59:26.994Z,67.94
2016-07-15T09:00:26.963Z,68.04
2016-07-15T09:01:27.019Z,68.55
2016-07-15T09:02:26.958Z,69.19
2016-07-15T09:03:26.986Z,69.64
2016-07-15T09:04:26.220Z,69.45
2016-07-15T09:05:26.961Z,69.83
2016-07-15T09:06:26.193Z,70.56
2016-07-15T09:07:26.919Z,69.93
2016-07-15T09:08:26.895Z,68.84
2016-07-15T09:09:26.920Z,68.19
2016-07-15T09:10:26.875Z,67.4
2016-07-15T09:11:26.913Z,66.46
2016-07-15T09:12:26.858Z,63.89
2016-07-15T09:13:26.845Z,63.73
2016-07-15T09:14:26.829Z,63.85
2016-07-15T09:15:26.116Z,63.27
2016-07-15T09:16:26.102Z,62.4
2016-07-15T09:17:26.101Z,62.3
2016-07-15T09:18:26.098Z,62.5
2016-07-15T09:19:26.088Z,63.31
2016-07-15T09:20:26.796Z,64.21
2016-07-15T09:21:26.801Z,66.3
2016-07-15T09:22:26.061Z,66.59
2016-07-15T09:23:26.781Z,68.19
2016-07-15T09:24:26.770Z,68.65
2016-07-15T09:25:26.756Z,69.32
2016-07-15T09:26:26.756Z,69.77
2016-07-15T09:27:26.025Z,69.38
2016-07-15T09:28:26.750Z,69.09
2016-07-15T09:29:26.088Z,68.93
2016-07-15T09:30:26.718Z,68.04
2016-07-15T09:31:26.709Z,66.27
2016-07-15T09:32:26.699Z,66.69
2016-07-15T09:33:26.692Z,67.71
2016-07-15T09:34:26.686Z,67.62
2016-07-15T09:35:26.673Z,67.71
2016-07-15T09:36:26.671Z,68.13
2016-07-15T09:37:26.656Z,68.62
2016-07-15T09:38:26.649Z,68.33
2016-07-15T09:39:26.635Z,67.55
2016-07-15T09:40:26.631Z,66.94
2016-07-15T09:41:25.911Z,68.1
2016-07-15T09:42:26.615Z,68.93
2016-07-15T09:43:26.609Z,69.61
2016-07-15T09:44:26.593Z,70.92
2016-07-15T09:45:26.585Z,70.89
2016-07-15T09:46:26.619Z,71.12
2016-07-15T09:47:26.568Z,71.66
2016-07-15T09:48:26.602Z,71.47
2016-07-15T09:49:26.562Z,72.05
2016-07-15T09:50:26.571Z,70.89
2016-07-15T09:51:26.524Z,70.6
2016-07-15T09:52:25.812Z,70.12
2016-07-15T09:53:25.782Z,69.73
2016-07-15T09:54:26.495Z,68.68
2016-07-15T09:55:26.484Z,68.87
2016-07-15T09:56:26.474Z,69.57
2016-07-15T09:57:25.746Z,68.71
2016-07-15T09:58:26.455Z,68.45
2016-07-15T09:59:26.445Z,67.62
2016-07-15T10:00:26.485Z,66.59
2016-07-15T10:01:25.706Z,65.63
2016-07-15T10:02:26.421Z,65.08
2016-07-15T10:03:26.406Z,63.56
2016-07-15T10:04:26.403Z,63.11
2016-07-15T10:05:26.398Z,61.24
2016-07-15T10:06:25.671Z,61.82
2016-07-15T10:07:26.376Z,60.47
2016-07-15T10:08:26.369Z,60.95
2016-07-15T10:09:26.368Z,61.95
2016-07-15T10:10:26.368Z,62.21
2016-07-15T10:11:26.347Z,62.12
2016-07-15T10:12:26.372Z,62.31
2016-07-15T10:13:26.334Z,62.44
2016-07-15T10:14:26.341Z,63.31
2016-07-15T10:15:26.321Z,63.31
2016-07-15T10:16:26.311Z,62.44
2016-07-15T10:17:26.307Z,61.63
2016-07-15T10:18:26.306Z,61.73
2016-07-15T10:19:25.569Z,61.54
2016-07-15T10:20:26.276Z,61.92
2016-07-15T10:21:26.270Z,61.92
2016-07-15T10:22:26.277Z,61.44
2016-07-15T10:23:25.541Z,62.02
2016-07-15T10:24:26.247Z,61.83
2016-07-15T10:25:26.237Z,62.02
2016-07-15T10:26:25.523Z,62.05
2016-07-15T10:27:26.228Z,61.11
2016-07-15T10:28:25.517Z,61.02
2016-07-15T10:29:26.206Z,60.47
2016-07-15T10:30:25.484Z,60.17
2016-07-15T10:31:26.215Z,60.98
2016-07-15T10:32:26.200Z,61.02
2016-07-15T10:33:26.184Z,61.98
2016-07-15T10:34:26.174Z,61.86
2016-07-15T10:35:25.447Z,62.7
2016-07-15T10:36:26.165Z,63.34
2016-07-15T10:37:26.151Z,64.11
2016-07-15T10:38:25.424Z,64.4
2016-07-15T10:39:26.135Z,65.24
2016-07-15T10:40:26.119Z,66.49
2016-07-15T10:41:25.401Z,65.82
2016-07-15T10:42:26.107Z,65.69
2016-07-15T10:43:26.092Z,63.89
2016-07-15T10:44:26.096Z,63.11
2016-07-15T10:45:25.377Z,63.66
2016-07-15T10:46:26.081Z,64.24
2016-07-15T10:47:25.421Z,64.69
2016-07-15T10:48:25.333Z,65.37
2016-07-15T10:49:26.111Z,65.63
2016-07-15T10:50:26.029Z,66.11
2016-07-15T10:51:26.037Z,66.49
2016-07-15T10:52:26.020Z,67.27
2016-07-15T10:53:26.010Z,66.97
2016-07-15T10:54:25.995Z,67.3
2016-07-15T10:55:25.995Z,66.17
2016-07-15T10:56:25.972Z,64.76
2016-07-15T10:57:25.252Z,64.47
2016-07-15T10:58:25.963Z,64.18
2016-07-15T10:59:25.961Z,63.82
2016-07-15T11:00:25.946Z,63.43
2016-07-15T11:01:25.232Z,63.34
2016-07-15T11:02:25.936Z,62.85
2016-07-15T11:03:25.924Z,63.37
2016-07-15T11:04:25.910Z,64.21
2016-07-15T11:05:25.897Z,63.24
2016-07-15T11:06:25.895Z,62.01
2016-07-15T11:07:25.903Z,61.27
2016-07-15T11:08:25.871Z,60.62
2016-07-15T11:09:25.162Z,61.91
2016-07-15T11:10:25.862Z,60.65
2016-07-15T11:11:25.847Z,59.78
2016-07-15T11:12:25.835Z,59.69
2016-07-15T11:13:25.842Z,60.52
2016-07-15T11:14:25.112Z,61.82
2016-07-15T11:15:25.817Z,61.88
2016-07-15T11:16:25.807Z,61.49
2016-07-15T11:17:25.093Z,62.59
2016-07-15T11:18:25.797Z,64.31
2016-07-15T11:19:25.785Z,66.75
2016-07-15T11:20:25.784Z,67.33
2016-07-15T11:21:25.770Z,67.11
2016-07-15T11:22:25.759Z,67.59
2016-07-15T11:23:25.767Z,66.66
2016-07-15T11:24:25.744Z,65.53
2016-07-15T11:25:25.935Z,64.5
2016-07-15T11:26:25.721Z,63.95
2016-07-15T11:27:25.715Z,66.14
2016-07-15T11:28:24.991Z,65.2
2016-07-15T11:29:25.691Z,64.82
2016-07-15T11:30:25.688Z,64.62
2016-07-15T11:31:25.689Z,64.53
2016-07-15T11:32:25.675Z,66.2
2016-07-15T11:33:25.667Z,67.17
2016-07-15T11:34:25.662Z,68.14
2016-07-15T11:35:25.647Z,66.94
2016-07-15T11:36:25.641Z,66.4
2016-07-15T11:37:25.630Z,65.53
2016-07-15T11:38:25.613Z,64.04
2016-07-15T11:39:24.894Z,62.59
2016-07-15T11:40:25.609Z,62.04
2016-07-15T11:41:25.594Z,62.53
2016-07-15T11:42:25.599Z,62.98
2016-07-15T11:43:25.589Z,62.04
2016-07-15T11:44:24.860Z,63.21
2016-07-15T11:45:24.849Z,62.66
2016-07-15T11:46:25.557Z,62.1
2016-07-15T11:47:25.549Z,62.1
2016-07-15T11:48:25.537Z,61.49
2016-07-15T11:49:25.529Z,62.17
2016-07-15T11:50:25.513Z,61.62
2016-07-15T11:51:24.800Z,61.62
2016-07-15T11:52:25.502Z,61.11
2016-07-15T11:53:25.498Z,61.66
2016-07-15T11:54:25.482Z,62.11
2016-07-15T11:55:25.469Z,62.69
2016-07-15T11:56:24.757Z,63.27
2016-07-15T11:57:25.464Z,63.82
2016-07-15T11:58:24.735Z,63.34
2016-07-15T11:59:25.477Z,63.92
2016-07-15T12:00:25.433Z,63.4
2016-07-15T12:01:24.739Z,62.46
2016-07-15T12:02:24.700Z,61.91
2016-07-15T12:03:24.708Z,62.23
2016-07-15T12:04:25.410Z,61.07
2016-07-15T12:05:24.692Z,60.75
2016-07-15T12:06:24.673Z,61.49
2016-07-15T12:07:25.381Z,62.46
2016-07-15T12:08:24.649Z,63.18
2016-07-15T12:09:25.368Z,63.85
2016-07-15T12:10:25.345Z,64.24
2016-07-15T12:11:25.348Z,63.76
2016-07-15T12:12:25.337Z,64.01
2016-07-15T12:13:24.621Z,64.18
2016-07-15T12:14:25.322Z,65.01
2016-07-15T12:15:25.321Z,66.08
2016-07-15T12:16:25.317Z,66.33
2016-07-15T12:17:24.585Z,66.53
2016-07-15T12:18:24.581Z,66.53
2016-07-15T12:19:25.280Z,66.82
2016-07-15T12:20:25.270Z,67.11
2016-07-15T12:21:25.251Z,67.4
2016-07-15T12:22:25.256Z,66.72
2016-07-15T12:23:25.240Z,66.17
2016-07-15T12:24:25.227Z,64.98
2016-07-15T12:25:25.239Z,64.31
2016-07-15T12:26:25.253Z,63.76
2016-07-15T12:27:25.212Z,61.95
2016-07-15T12:28:25.192Z,62.46
2016-07-15T12:29:25.188Z,61.52
2016-07-15T12:30:24.457Z,61.91
2016-07-15T12:31:25.157Z,63.37
2016-07-15T12:32:25.160Z,63.24
2016-07-15T12:33:25.148Z,62.27
2016-07-15T12:34:25.145Z,62.46
2016-07-15T12:35:25.129Z,63.04
2016-07-15T12:36:25.123Z,63.4
2016-07-15T12:37:25.116Z,62.43
2016-07-15T12:38:24.391Z,63.59
2016-07-15T12:39:25.094Z,63.53
2016-07-15T12:40:24.387Z,62.63
2016-07-15T12:41:24.380Z,62.14
2016-07-15T12:42:25.086Z,63.37
2016-07-15T12:43:24.349Z,63.37
2016-07-15T12:44:25.064Z,63.18
2016-07-15T12:45:24.332Z,62.85
2016-07-15T12:46:24.330Z,63.53
2016-07-15T12:47:24.319Z,63.34
2016-07-15T12:48:24.320Z,63.4
2016-07-15T12:49:25.012Z,63.69
2016-07-15T12:50:25.011Z,63.79
2016-07-15T12:51:24.999Z,63.79
2016-07-15T12:52:24.270Z,63.24
2016-07-15T12:53:24.978Z,63.66
2016-07-15T12:54:24.303Z,63.43